Time;durP1;ratioP1;P1;durP2;ratioP2;P2;SDS_P1;SDS_P2;PMS_P1;PMS_P2;Temp;Humidity;BMP_temperature;BMP_pressure;BME280_temperature;BME280_humidity;BME280_pressure;Samples;Min_cycle;Max_cycle;Signal;HPM_P1;HPM_P2
2022/11/08 00:02:04;;;;;;;6.20;3.97;;;;;;;9.34;87.09;98163.41;4975559;28;20081;-86
2022/11/08 00:04:30;;;;;;;7.65;4.45;;;;;;;9.38;86.71;98169.09;4975834;28;20035;-86
2022/11/08 00:15:09;;;;;;;7.72;4.45;;;;;;;9.31;86.38;98153.31;4975233;28;20033;-86
2022/11/08 00:17:34;;;;;;;6.05;4.47;;;;;;;9.31;86.69;98147.28;4990648;28;20034;-87
2022/11/08 00:20:00;;;;;;;7.78;4.70;;;;;;;9.30;86.30;98156.94;4975887;28;20069;-87
2022/11/08 00:22:30;;;;;;;6.18;4.30;;;;;;;9.31;86.27;98147.28;4975701;28;20402;-87
2022/11/08 00:24:56;;;;;;;6.37;4.60;;;;;;;9.26;86.27;98150.47;4975244;28;20474;-87
2022/11/08 00:27:24;;;;;;;6.38;4.53;;;;;;;9.20;86.18;98153.03;4976255;28;20493;-86
2022/11/08 00:29:49;;;;;;;7.38;5.13;;;;;;;9.16;85.73;98154.41;4975623;28;20082;-86
2022/11/08 00:32:22;;;;;;;6.72;4.97;;;;;;;9.03;85.24;98157.72;4975261;28;20082;-86
2022/11/08 00:34:48;;;;;;;9.27;5.15;;;;;;;8.96;85.65;98164.69;4976292;28;20119;-86
2022/11/08 00:37:18;;;;;;;10.25;5.20;;;;;;;8.97;86.03;98161.09;4976551;28;20093;-86
2022/11/08 00:39:44;;;;;;;7.68;5.10;;;;;;;8.89;86.11;98158.59;4974847;28;20122;-86
2022/11/08 00:42:10;;;;;;;8.40;5.85;;;;;;;8.84;85.99;98154.72;4974458;28;20110;-86
2022/11/08 00:44:36;;;;;;;6.25;4.80;;;;;;;8.81;85.95;98156.91;4974984;28;20045;-86
2022/11/08 00:47:02;;;;;;;7.00;4.80;;;;;;;8.79;86.18;98156.28;4975288;28;20041;-86
2022/11/08 00:49:28;;;;;;;6.63;5.43;;;;;;;8.72;86.54;98158.03;4975046;28;20043;-87
2022/11/08 00:51:54;;;;;;;6.35;4.97;;;;;;;8.64;86.81;98145.91;4974547;28;20043;-86
2022/11/08 00:54:20;;;;;;;7.82;4.93;;;;;;;8.68;87.16;98154.97;4973110;28;20398;-86
2022/11/08 00:56:47;;;;;;;7.68;5.03;;;;;;;8.61;87.55;98142.84;4974875;28;20066;-86
2022/11/08 00:59:16;;;;;;;5.70;4.95;;;;;;;8.69;87.03;98153.97;4974334;28;20046;-87
2022/11/08 01:01:43;;;;;;;7.78;4.93;;;;;;;8.65;87.50;98157.16;4974297;28;20811;-87
2022/11/08 01:04:12;;;;;;;9.68;5.05;;;;;;;8.61;86.72;98161.94;4973887;28;20073;-86
2022/11/08 01:06:38;;;;;;;7.78;5.28;;;;;;;8.53;86.07;98159.44;4974298;28;20059;-87
2022/11/08 01:09:06;;;;;;;5.78;5.13;;;;;;;8.57;86.60;98161.50;4974011;28;20062;-86
2022/11/08 01:11:32;;;;;;;7.88;4.82;;;;;;;8.55;86.32;98152.22;4974356;28;20037;-86
2022/11/08 01:13:59;;;;;;;6.25;4.78;;;;;;;8.52;86.84;98157.84;4973644;28;20038;-86
2022/11/08 01:16:29;;;;;;;7.47;4.57;;;;;;;8.44;86.78;98139.63;4974159;28;20039;-87
2022/11/08 01:18:57;;;;;;;7.03;5.00;;;;;;;8.41;87.55;98156.50;4989550;28;20046;-86
2022/11/08 01:21:25;;;;;;;7.75;4.70;;;;;;;8.38;87.40;98148.22;4988675;28;20038;-86
2022/11/08 01:23:53;;;;;;;9.48;5.32;;;;;;;8.41;86.87;98153.91;4973942;28;20057;-87
2022/11/08 01:26:25;;;;;;;5.22;4.30;;;;;;;8.35;87.71;98157.22;4974710;28;20162;-86
2022/11/08 01:28:53;;;;;;;6.28;4.57;;;;;;;8.38;88.38;98151.63;4974524;28;20082;-86
2022/11/08 01:31:26;;;;;;;6.30;4.35;;;;;;;8.26;87.89;98143.44;4974894;28;20050;-86
2022/11/08 01:33:52;;;;;;;9.05;4.47;;;;;;;8.35;88.77;98153.78;4973789;28;20039;-86
2022/11/08 01:36:22;;;;;;;6.47;4.57;;;;;;;8.38;88.38;98156.06;4973709;28;20027;-86
2022/11/08 01:38:49;;;;;;;6.35;4.70;;;;;;;8.32;87.67;98147.91;4972506;28;20034;-87
2022/11/08 01:41:16;;;;;;;6.03;4.15;;;;;;;8.33;87.85;98143.50;4972981;28;20050;-86
2022/11/08 01:43:51;;;;;;;5.47;4.50;;;;;;;8.35;87.56;98146.75;4973686;28;20714;-86
2022/11/08 01:46:17;;;;;;;8.45;4.35;;;;;;;8.31;88.06;98150.72;4955096;28;20038;-86
2022/11/08 01:48:56;;;;;;;7.15;4.72;;;;;;;8.30;86.85;98142.06;4973200;28;20463;-87
2022/11/08 01:51:32;;;;;;;5.90;4.45;;;;;;;8.22;86.94;98136.97;4973354;28;20038;-86
2022/11/08 01:54:01;;;;;;;7.63;4.53;;;;;;;8.17;87.48;98138.50;4970782;28;20039;-86
2022/11/08 01:56:27;;;;;;;7.60;4.75;;;;;;;8.16;87.72;98131.66;4973198;28;20034;-86
2022/11/08 01:58:56;;;;;;;6.30;4.28;;;;;;;8.07;87.62;98123.09;4973041;28;20093;-86
2022/11/08 02:01:22;;;;;;;6.57;4.60;;;;;;;8.00;87.34;98117.81;4973546;28;20043;-86
2022/11/08 02:03:48;;;;;;;5.45;4.30;;;;;;;8.11;87.85;98116.53;4973333;28;20058;-86
2022/11/08 02:06:15;;;;;;;7.57;4.50;;;;;;;8.07;88.36;98106.63;4973663;28;20039;-86
2022/11/08 02:08:43;;;;;;;5.47;4.57;;;;;;;8.01;88.50;98118.63;4972770;28;20041;-86
2022/11/08 02:11:15;;;;;;;7.63;4.72;;;;;;;7.97;88.36;98112.13;4973048;28;20030;-86
2022/11/08 02:13:41;;;;;;;7.25;4.63;;;;;;;7.95;88.52;98101.06;4973071;28;20030;-86
2022/11/08 02:16:14;;;;;;;5.30;4.32;;;;;;;7.90;88.49;98098.19;4972831;28;20117;-86
2022/11/08 02:18:44;;;;;;;6.28;4.53;;;;;;;7.91;89.01;98097.19;4972404;28;20355;-86
2022/11/08 02:21:16;;;;;;;8.18;4.43;;;;;;;7.93;89.03;98100.44;4961976;28;20070;-86
2022/11/08 02:23:57;;;;;;;6.60;4.53;;;;;;;7.96;88.52;98094.84;4952898;29;20122;-86
2022/11/08 02:26:28;;;;;;;7.75;4.53;;;;;;;7.93;88.57;98092.59;4971606;28;20035;-86
2022/11/08 02:28:54;;;;;;;7.43;4.32;;;;;;;7.86;88.28;98078.66;4972210;28;20038;-86
2022/11/08 02:31:20;;;;;;;5.47;4.80;;;;;;;7.86;87.65;98081.28;4972936;28;20043;-86
2022/11/08 02:33:47;;;;;;;7.55;4.55;;;;;;;7.83;87.94;98079.03;4973024;28;20037;-86
2022/11/08 02:36:18;;;;;;;5.38;3.88;;;;;;;7.82;88.16;98087.84;4972499;28;20111;-86
2022/11/08 02:38:52;;;;;;;8.13;4.63;;;;;;;7.84;88.00;98070.19;4972870;28;20051;-86
2022/11/08 02:41:17;;;;;;;6.25;4.50;;;;;;;7.85;88.44;98082.25;4972631;28;20482;-86
2022/11/08 02:43:43;;;;;;;6.18;4.28;;;;;;;7.85;87.92;98077.03;4973416;28;20046;-86
2022/11/08 02:46:08;;;;;;;4.78;3.78;;;;;;;7.85;87.98;98074.41;4972125;28;20030;-87
2022/11/08 02:48:34;;;;;;;5.38;4.18;;;;;;;7.76;87.54;98058.84;4972576;28;20109;-86
2022/11/08 02:51:00;;;;;;;7.80;4.70;;;;;;;7.87;87.63;98080.28;4969336;28;20437;-86
2022/11/08 02:53:25;;;;;;;6.05;4.50;;;;;;;7.82;87.57;98070.38;4970211;28;20039;-86
2022/11/08 02:55:52;;;;;;;5.93;4.53;;;;;;;7.88;87.09;98081.91;4972881;28;20049;-86
2022/11/08 02:58:18;;;;;;;7.82;4.65;;;;;;;7.79;86.96;98068.91;4972405;28;20043;-86
2022/11/08 03:00:43;;;;;;;7.95;4.03;;;;;;;7.76;87.03;98077.13;4972166;28;20039;-86
2022/11/08 03:03:09;;;;;;;6.75;4.43;;;;;;;7.74;86.91;98076.53;4971781;28;20553;-86
2022/11/08 03:05:34;;;;;;;7.32;4.50;;;;;;;7.75;87.15;98078.13;4972219;28;20031;-86
2022/11/08 03:08:00;;;;;;;6.07;4.30;;;;;;;7.72;87.19;98072.44;4970306;28;20035;-86
2022/11/08 03:10:28;;;;;;;6.43;4.40;;;;;;;7.69;87.79;98078.84;4970673;28;20035;-86
2022/11/08 03:12:59;;;;;;;6.00;4.38;;;;;;;7.68;87.49;98085.06;4971923;28;20093;-86
2022/11/08 03:15:25;;;;;;;4.90;4.30;;;;;;;7.71;87.74;98084.69;4972076;28;20039;-87
2022/11/08 03:17:51;;;;;;;7.05;4.40;;;;;;;7.69;87.59;98084.09;4972722;28;20117;-86
2022/11/08 03:20:17;;;;;;;6.95;4.45;;;;;;;7.68;87.16;98079.03;4964249;28;20059;-86
2022/11/08 03:22:43;;;;;;;5.72;4.40;;;;;;;7.67;87.45;98082.63;4984627;28;20434;-86
2022/11/08 03:25:09;;;;;;;6.28;4.55;;;;;;;7.68;87.56;98077.25;4971779;28;20030;-86
2022/11/08 03:27:34;;;;;;;6.82;4.18;;;;;;;7.68;87.28;98072.03;4972175;28;20042;-86
2022/11/08 03:30:00;;;;;;;5.53;4.45;;;;;;;7.61;87.29;98070.28;4971554;28;20133;-86
2022/11/08 03:32:25;;;;;;;7.07;4.63;;;;;;;7.63;88.00;98082.19;4971968;28;20034;-87
2022/11/08 03:34:51;;;;;;;10.50;4.72;;;;;;;7.59;87.73;98067.88;4972437;28;20418;-86
2022/11/08 03:37:17;;;;;;;4.93;4.20;;;;;;;7.59;87.52;98077.50;4971409;28;20042;-86
2022/11/08 03:39:42;;;;;;;6.25;4.65;;;;;;;7.55;87.60;98071.81;4971411;28;20039;-86
2022/11/08 03:42:08;;;;;;;5.75;4.65;;;;;;;7.52;87.36;98056.53;4971824;28;20077;-86
2022/11/08 03:44:33;;;;;;;8.85;4.40;;;;;;;7.53;87.08;98063.38;4971593;28;20035;-86
2022/11/08 03:46:59;;;;;;;5.55;4.13;;;;;;;7.50;87.01;98071.59;4966842;28;20051;-86
2022/11/08 03:49:26;;;;;;;7.85;4.80;;;;;;;7.51;86.76;98071.41;4960228;28;20101;-87
2022/11/08 03:51:54;;;;;;;6.10;4.78;;;;;;;7.47;86.77;98075.34;4972507;28;20035;-86
2022/11/08 03:54:20;;;;;;;5.70;4.38;;;;;;;7.47;87.07;98085.78;4970335;28;20503;-86
2022/11/08 03:56:45;;;;;;;10.07;4.35;;;;;;;7.49;86.81;98085.59;4971516;28;20031;-86
2022/11/08 03:59:11;;;;;;;5.32;3.90;;;;;;;7.47;87.10;98084.97;4971372;28;20061;-86
2022/11/08 04:01:38;;;;;;;6.07;4.32;;;;;;;7.50;86.56;98087.25;4973695;28;20043;-86
2022/11/08 04:04:05;;;;;;;5.93;3.97;;;;;;;7.49;86.39;98080.38;4974146;28;20497;-86
2022/11/08 04:06:30;;;;;;;5.68;4.20;;;;;;;7.51;85.98;98081.84;4973809;28;20382;-86
2022/11/08 04:08:56;;;;;;;10.35;4.15;;;;;;;7.50;86.46;98088.06;4972288;28;20027;-86
2022/11/08 04:16:52;;;;;;;7.07;4.15;;;;;;;7.43;86.38;98071.47;4975645;28;20465;-86
2022/11/08 04:22:03;;;;;;;6.70;4.28;;;;;;;7.33;86.89;98057.09;4974678;28;20124;-86
2022/11/08 04:24:29;;;;;;;4.72;3.90;;;;;;;7.37;86.76;98071.38;4974726;28;20450;-86
2022/11/08 04:26:54;;;;;;;5.72;3.90;;;;;;;7.38;86.81;98070.41;4974922;28;20035;-86
2022/11/08 04:29:20;;;;;;;6.38;4.60;;;;;;;7.33;86.31;98060.50;4975171;28;20117;-86
2022/11/08 04:31:45;;;;;;;5.85;4.20;;;;;;;7.33;86.46;98051.88;4975099;28;20133;-86
2022/11/08 04:34:10;;;;;;;4.90;3.92;;;;;;;7.30;86.30;98052.22;4975217;28;20035;-86
2022/11/08 04:36:36;;;;;;;7.85;4.20;;;;;;;7.25;86.80;98056.16;4974553;28;20034;-86
2022/11/08 04:39:01;;;;;;;5.30;4.00;;;;;;;7.23;86.20;98065.97;4973472;28;20031;-86
2022/11/08 04:41:27;;;;;;;6.78;4.18;;;;;;;7.20;86.62;98048.09;4980202;28;20097;-86
2022/11/08 04:43:55;;;;;;;6.03;4.10;;;;;;;7.28;85.95;98059.44;4974987;28;20590;-86
2022/11/08 04:46:27;;;;;;;5.30;3.85;;;;;;;7.25;85.66;98064.00;4975074;28;20046;-85
2022/11/08 04:48:56;;;;;;;5.07;4.00;;;;;;;7.21;85.75;98059.34;4977757;28;20402;-86
2022/11/08 04:51:30;;;;;;;6.18;4.07;;;;;;;7.21;86.13;98060.13;4974951;28;20451;-86
2022/11/08 04:54:00;;;;;;;8.02;4.20;;;;;;;7.16;85.70;98052.03;4971376;28;20031;-86
2022/11/08 04:56:28;;;;;;;6.65;4.13;;;;;;;7.10;86.14;98049.34;4974721;28;20471;-87
2022/11/08 04:58:57;;;;;;;8.10;4.30;;;;;;;7.13;86.61;98047.16;4974802;28;20073;-86
2022/11/08 05:01:29;;;;;;;5.07;4.20;;;;;;;7.08;86.66;98044.31;4974003;28;20043;-86
2022/11/08 05:03:56;;;;;;;5.07;3.92;;;;;;;7.02;86.53;98038.97;4973651;28;20063;-86
2022/11/08 05:06:26;;;;;;;5.75;4.00;;;;;;;7.03;86.92;98048.44;4974344;28;20037;-86
2022/11/08 05:08:54;;;;;;;8.18;4.57;;;;;;;7.01;86.63;98038.16;4974529;28;20110;-86
2022/11/08 05:11:23;;;;;;;5.75;3.95;;;;;;;6.93;86.26;98033.03;4974711;28;20043;-85
2022/11/08 05:13:49;;;;;;;5.35;4.15;;;;;;;6.97;86.75;98036.91;4973209;28;20031;-86
2022/11/08 05:16:23;;;;;;;6.15;4.05;;;;;;;6.92;86.29;98032.22;4973685;28;20034;-86
2022/11/08 05:18:50;;;;;;;4.95;4.05;;;;;;;6.92;86.54;98024.41;4967848;28;20460;-86
2022/11/08 05:24:05;;;;;;;4.90;4.05;;;;;;;6.83;86.40;98020.25;4973983;28;20042;-86
2022/11/08 05:26:37;;;;;;;7.07;3.90;;;;;;;6.84;85.96;98027.09;4973182;28;20035;-86
2022/11/08 05:29:04;;;;;;;9.57;4.25;;;;;;;6.84;86.00;98021.06;4973358;28;20038;-87
2022/11/08 05:31:30;;;;;;;6.63;4.13;;;;;;;6.79;86.24;98020.78;4973843;28;20043;-86
2022/11/08 05:33:55;;;;;;;5.53;4.50;;;;;;;6.77;86.13;98020.16;4973238;28;20093;-87
2022/11/08 05:36:21;;;;;;;5.80;4.05;;;;;;;6.82;85.93;98020.44;4973538;28;20053;-86
2022/11/08 05:38:46;;;;;;;7.22;4.45;;;;;;;6.81;86.18;98021.41;4971561;28;20053;-86
2022/11/08 05:41:19;;;;;;;5.88;4.20;;;;;;;6.84;86.17;98026.28;4971554;28;20026;-86
2022/11/08 05:43:48;;;;;;;5.95;4.53;;;;;;;6.81;86.09;98011.00;4987699;28;20061;-86
2022/11/08 05:46:15;;;;;;;7.07;4.60;;;;;;;6.80;86.42;98011.97;4973348;28;20051;-86
2022/11/08 05:48:42;;;;;;;6.72;4.10;;;;;;;6.77;86.51;98014.94;4973069;28;20038;-87
2022/11/08 05:51:12;;;;;;;6.40;4.60;;;;;;;6.71;86.56;98022.47;4972344;28;20042;-86
2022/11/08 05:53:39;;;;;;;5.95;4.22;;;;;;;6.74;87.09;98020.50;4969260;28;20035;-86
2022/11/08 05:56:07;;;;;;;7.38;4.65;;;;;;;6.75;87.18;98014.31;4973097;28;20038;-86
2022/11/08 05:58:35;;;;;;;7.65;4.53;;;;;;;6.76;86.70;98018.53;4972656;28;20039;-86
2022/11/08 06:01:10;;;;;;;6.65;4.60;;;;;;;6.75;86.52;98019.53;4972513;28;20663;-86
2022/11/08 06:03:36;;;;;;;8.48;4.78;;;;;;;6.75;86.85;98011.69;4972367;28;20031;-87
2022/11/08 06:06:08;;;;;;;9.55;5.13;;;;;;;6.71;86.25;98001.63;4972925;28;20062;-86
2022/11/08 06:08:34;;;;;;;8.65;5.13;;;;;;;6.68;86.86;98001.97;4968579;28;20041;-86
2022/11/08 06:11:11;;;;;;;8.23;4.93;;;;;;;6.60;86.68;98016.91;4970996;28;20125;-86
2022/11/08 06:13:36;;;;;;;6.72;4.82;;;;;;;6.49;86.93;98020.72;4972433;28;20046;-86
2022/11/08 06:16:09;;;;;;;6.72;4.95;;;;;;;6.42;87.18;98006.78;4958843;28;20038;-86
2022/11/08 06:18:37;;;;;;;7.97;5.55;;;;;;;6.52;87.77;98007.31;4972300;28;20100;-86
2022/11/08 06:21:05;;;;;;;10.38;5.28;;;;;;;6.51;86.87;98015.31;4972548;28;20841;-86
2022/11/08 06:23:32;;;;;;;6.38;4.93;;;;;;;6.56;87.50;98018.22;4971836;28;20039;-86
2022/11/08 06:25:59;;;;;;;7.55;5.10;;;;;;;6.62;87.20;98018.31;4971916;28;20089;-87
2022/11/08 06:28:26;;;;;;;7.60;4.88;;;;;;;6.64;86.81;98021.56;4971753;28;20078;-87
2022/11/08 06:30:51;;;;;;;9.90;5.22;;;;;;;6.67;86.31;98036.06;4971414;28;20368;-87
2022/11/08 06:33:19;;;;;;;7.38;4.80;;;;;;;6.70;86.01;98020.84;4971865;28;20117;-86
2022/11/08 06:35:45;;;;;;;8.13;4.93;;;;;;;6.76;86.16;98029.75;4972177;28;20034;-86
2022/11/08 06:38:11;;;;;;;8.52;5.53;;;;;;;6.80;86.31;98028.44;4971638;28;20041;-86
2022/11/08 06:40:38;;;;;;;7.80;5.50;;;;;;;6.92;86.71;98026.19;4970959;28;20041;-86
2022/11/08 06:43:03;;;;;;;10.40;8.30;;;;;;;6.93;86.18;98025.22;4971648;28;20108;-86
2022/11/08 06:45:29;;;;;;;9.60;6.05;;;;;;;6.99;85.33;98029.72;4972190;28;20042;-86
2022/11/08 06:48:00;;;;;;;9.07;6.03;;;;;;;7.07;85.56;98027.00;4973170;28;20051;-86
2022/11/08 06:50:27;;;;;;;13.70;10.15;;;;;;;7.15;85.23;98033.97;4972318;28;20046;-86
2022/11/08 06:53:05;;;;;;;14.85;11.02;;;;;;;7.25;85.56;98030.06;4970799;28;20026;-87
2022/11/08 06:55:34;;;;;;;11.55;8.25;;;;;;;7.32;84.93;98019.75;4972159;28;20041;-87
2022/11/08 06:58:00;;;;;;;9.55;7.38;;;;;;;7.40;84.75;98024.06;4972279;28;20182;-86
2022/11/08 07:00:26;;;;;;;10.77;7.65;;;;;;;7.41;84.29;98029.09;4972315;28;20107;-86
2022/11/08 07:03:00;;;;;;;10.68;8.93;;;;;;;7.34;84.70;98027.41;4971420;28;20030;-87
2022/11/08 07:05:27;;;;;;;11.70;6.32;;;;;;;7.33;84.86;98020.56;4972135;28;20043;-86
2022/11/08 07:07:55;;;;;;;9.35;6.72;;;;;;;7.39;84.48;98020.66;4971641;28;20038;-87
2022/11/08 07:10:24;;;;;;;8.95;6.40;;;;;;;7.47;84.43;98027.56;4970788;28;20053;-87
2022/11/08 07:13:03;;;;;;;9.15;7.18;;;;;;;7.60;84.64;98032.94;4971597;28;20039;-86
2022/11/08 07:15:30;;;;;;;9.48;6.13;;;;;;;7.66;84.25;98037.44;4972300;28;20499;-87
2022/11/08 07:18:05;;;;;;;9.68;6.00;;;;;;;7.72;83.79;98021.03;4975296;28;20038;-86
2022/11/08 07:20:31;;;;;;;11.45;6.28;;;;;;;7.73;83.79;98014.81;4952819;28;20063;-87
2022/11/08 07:22:57;;;;;;;10.55;5.85;;;;;;;7.71;84.16;98018.63;4963002;28;20070;-87
2022/11/08 07:25:24;;;;;;;11.02;6.53;;;;;;;7.73;83.85;98022.66;4973105;28;20139;-86
2022/11/08 07:27:49;;;;;;;12.63;6.50;;;;;;;7.77;83.67;98023.13;4973142;28;20386;-87
2022/11/08 07:30:15;;;;;;;10.10;7.32;;;;;;;7.87;84.01;98028.06;4972909;28;20050;-87
2022/11/08 07:32:41;;;;;;;11.43;7.68;;;;;;;8.00;83.82;98025.59;4973143;28;20058;-87
2022/11/08 07:35:07;;;;;;;8.00;6.10;;;;;;;8.15;83.72;98007.25;4972930;28;20041;-86
2022/11/08 07:37:32;;;;;;;11.48;6.18;;;;;;;8.15;83.63;98020.31;4976991;28;20035;-87
2022/11/08 07:39:58;;;;;;;13.00;6.85;;;;;;;8.32;84.48;98032.94;4960832;28;20035;-87
2022/11/08 07:42:23;;;;;;;9.90;6.15;;;;;;;8.28;83.16;98031.72;4976514;28;20038;-86
2022/11/08 07:44:49;;;;;;;11.02;7.38;;;;;;;8.47;83.34;98037.34;4976515;28;20430;-86
2022/11/08 07:47:14;;;;;;;11.13;6.38;;;;;;;8.50;83.50;98040.38;4976687;28;20031;-86
2022/11/08 07:49:40;;;;;;;11.48;6.80;;;;;;;8.50;83.38;98035.16;4976400;28;20082;-87
2022/11/08 07:52:05;;;;;;;11.05;6.93;;;;;;;8.51;84.35;98046.41;4976908;28;20035;-87
2022/11/08 07:54:31;;;;;;;9.50;6.40;;;;;;;8.42;83.15;98026.63;4975338;28;20056;-87
2022/11/08 07:56:56;;;;;;;8.60;6.22;;;;;;;8.54;82.70;98032.97;4976510;28;20489;-87
2022/11/08 07:59:22;;;;;;;8.95;5.82;;;;;;;8.74;82.27;98026.09;4990247;28;20066;-86
2022/11/08 08:01:47;;;;;;;8.15;5.10;;;;;;;8.88;81.63;98034.06;4975579;28;20035;-86
2022/11/08 08:04:12;;;;;;;6.78;5.18;;;;;;;8.97;81.48;98030.28;4975845;28;20363;-87
2022/11/08 08:06:39;;;;;;;5.53;4.68;;;;;;;8.94;80.65;98015.00;4975232;28;20106;-87
2022/11/08 08:09:04;;;;;;;7.80;4.65;;;;;;;9.04;81.04;98025.91;4973662;28;20062;-87
2022/11/08 08:11:30;;;;;;;7.13;5.18;;;;;;;9.06;81.50;98027.34;4975602;28;20042;-86
2022/11/08 08:13:55;;;;;;;9.38;4.90;;;;;;;9.13;81.90;98034.44;4990523;28;20031;-86
2022/11/08 08:16:22;;;;;;;7.38;5.18;;;;;;;9.25;81.02;98031.09;4975221;28;20383;-86
2022/11/08 08:18:49;;;;;;;8.15;4.93;;;;;;;9.38;81.57;98025.13;4975081;28;20050;-87
2022/11/08 08:21:14;;;;;;;7.68;4.75;;;;;;;9.49;81.23;98029.81;4975416;28;20495;-87
2022/11/08 08:23:40;;;;;;;9.45;5.13;;;;;;;9.60;81.09;98020.59;4975023;28;20035;-86
2022/11/08 08:26:05;;;;;;;7.32;5.03;;;;;;;9.82;80.35;98029.94;4958677;28;20034;-87
2022/11/08 08:28:31;;;;;;;5.82;4.70;;;;;;;9.87;78.80;98034.59;4975763;28;20035;-86
2022/11/08 08:30:57;;;;;;;6.65;4.63;;;;;;;9.99;80.46;98030.41;4975380;28;20050;-86
2022/11/08 08:33:23;;;;;;;6.95;4.22;;;;;;;10.16;79.64;98036.09;4975882;28;20035;-86
2022/11/08 08:35:50;;;;;;;7.07;4.43;;;;;;;10.29;80.24;98025.66;4974326;28;20038;-86
2022/11/08 08:38:16;;;;;;;5.88;3.97;;;;;;;10.42;80.13;98028.28;4974819;28;20034;-87
2022/11/08 08:40:41;;;;;;;6.03;4.00;;;;;;;10.55;76.97;98026.69;4989827;28;20058;-86
2022/11/08 08:43:07;;;;;;;5.60;3.75;;;;;;;10.50;77.34;98016.81;4974670;28;20395;-86
2022/11/08 08:45:34;;;;;;;6.53;3.97;;;;;;;10.62;77.57;98014.41;4975142;28;20046;-86
2022/11/08 08:48:00;;;;;;;6.57;3.88;;;;;;;10.72;77.40;98015.59;4984757;28;20126;-87
2022/11/08 08:50:29;;;;;;;9.25;4.65;;;;;;;10.79;77.69;98020.84;4975033;28;20506;-87
2022/11/08 08:53:00;;;;;;;4.78;3.55;;;;;;;10.86;76.67;98011.19;4987109;28;20041;-86
2022/11/08 08:55:27;;;;;;;6.32;3.83;;;;;;;10.93;77.09;98008.53;4987520;28;20047;-84
2022/11/08 08:57:53;;;;;;;5.43;3.78;;;;;;;10.91;76.56;98002.66;4972827;28;20070;-84
2022/11/08 09:00:19;;;;;;;7.40;4.05;;;;;;;10.93;74.88;98006.72;4972252;28;20506;-85
2022/11/08 09:02:45;;;;;;;5.20;3.58;;;;;;;10.86;75.61;97987.56;4971624;28;20154;-85
2022/11/08 09:05:12;;;;;;;6.47;3.60;;;;;;;10.96;75.94;98002.88;4971450;28;20035;-84
2022/11/08 09:07:39;;;;;;;7.10;4.07;;;;;;;10.99;75.30;97998.03;4971522;28;20039;-85
2022/11/08 09:10:07;;;;;;;5.15;3.60;;;;;;;11.16;75.38;98014.16;4971668;28;20034;-85
2022/11/08 09:12:33;;;;;;;4.20;3.10;;;;;;;11.16;74.43;98010.72;4970789;28;20508;-86
2022/11/08 09:14:59;;;;;;;8.02;3.75;;;;;;;11.28;73.23;98009.09;4971352;28;20372;-85
2022/11/08 09:17:27;;;;;;;6.57;4.03;;;;;;;11.39;73.21;98002.38;4970493;28;20625;-85
2022/11/08 09:19:53;;;;;;;4.78;3.53;;;;;;;11.54;72.58;97997.69;4970208;28;20390;-85
2022/11/08 09:22:18;;;;;;;5.35;3.72;;;;;;;11.79;73.00;98003.84;4971461;28;20109;-85
2022/11/08 09:24:44;;;;;;;5.88;3.70;;;;;;;12.03;72.67;98012.84;4971565;28;20136;-85
2022/11/08 09:27:09;;;;;;;6.78;3.60;;;;;;;12.07;71.65;98007.19;4971825;28;20034;-85
2022/11/08 09:29:35;;;;;;;5.53;3.40;;;;;;;11.97;70.24;98005.81;4971371;28;20590;-85
2022/11/08 09:32:01;;;;;;;5.50;3.30;;;;;;;12.07;72.38;98018.50;4971965;28;20039;-86
2022/11/08 09:34:26;;;;;;;4.82;3.47;;;;;;;12.09;71.37;98020.91;4973335;28;20522;-85
2022/11/08 09:36:53;;;;;;;4.55;3.70;;;;;;;12.26;70.72;98016.78;4971836;28;20429;-85
2022/11/08 09:39:18;;;;;;;3.58;3.05;;;;;;;12.45;70.15;98020.28;4971315;28;20034;-85
2022/11/08 09:42:13;;;;;;;5.53;3.60;;;;;;;12.55;67.29;98008.28;4971211;28;20097;-83
2022/11/08 09:44:57;;;;;;;4.25;3.17;;;;;;;12.67;67.90;98002.31;4957026;28;20061;-83
2022/11/08 09:47:41;;;;;;;3.97;2.90;;;;;;;12.83;69.14;98009.66;4971117;28;20062;-82
2022/11/08 09:50:23;;;;;;;3.42;2.78;;;;;;;12.95;67.23;98002.66;4966306;28;20562;-83
2022/11/08 09:53:17;;;;;;;4.00;3.00;;;;;;;13.04;66.18;98003.19;4967604;28;20501;-83
2022/11/08 09:56:05;;;;;;;4.40;2.90;;;;;;;13.05;65.32;98000.34;4970875;28;20145;-82
2022/11/08 09:58:42;;;;;;;3.92;3.03;;;;;;;13.19;66.30;98010.75;4970817;28;20046;-83
2022/11/08 10:01:12;;;;;;;4.32;3.00;;;;;;;13.25;65.54;97999.38;4970622;28;20359;-83
2022/11/08 10:03:42;;;;;;;3.97;2.97;;;;;;;13.22;65.43;98005.09;4969922;28;20027;-83
2022/11/08 10:06:29;;;;;;;4.60;2.87;;;;;;;13.16;66.17;98005.91;4969701;28;20046;-83
2022/11/08 10:09:43;;;;;;;3.83;2.83;;;;;;;13.16;64.82;98000.66;4970576;28;20042;-82
2022/11/08 10:13:01;;;;;;;3.88;2.92;;;;;;;13.25;63.46;98009.91;4960860;28;20053;-82
2022/11/08 10:16:25;;;;;;;4.05;2.42;;;;;;;13.30;62.99;98007.41;4970931;28;20494;-83
2022/11/08 10:19:04;;;;;;;5.28;2.50;;;;;;;13.25;63.58;98015.16;4966628;28;20394;-83
2022/11/08 10:21:57;;;;;;;3.15;2.53;;;;;;;13.09;62.63;98001.53;4969231;28;20062;-85
2022/11/08 10:24:36;;;;;;;3.60;3.00;;;;;;;13.05;63.27;97997.72;4970396;28;20042;-84
2022/11/08 10:27:14;;;;;;;7.55;2.90;;;;;;;13.11;63.59;97998.66;4968797;28;20035;-86
2022/11/08 10:29:45;;;;;;;2.92;2.42;;;;;;;13.23;64.15;97990.88;4969439;28;20102;-84
2022/11/08 10:32:20;;;;;;;5.03;2.78;;;;;;;13.31;63.65;97993.22;4970493;28;20481;-84
2022/11/08 10:34:57;;;;;;;3.75;2.10;;;;;;;13.36;62.51;98001.28;4969255;28;20061;-85
2022/11/08 10:37:24;;;;;;;9.07;2.83;;;;;;;13.35;62.69;97991.75;4970452;28;20035;-84
2022/11/08 10:40:02;;;;;;;4.43;2.17;;;;;;;13.26;61.70;98001.00;4970310;28;20564;-84
2022/11/08 10:42:52;;;;;;;3.22;2.35;;;;;;;13.20;61.98;98009.75;4969948;28;20125;-85
2022/11/08 10:45:17;;;;;;;2.33;2.10;;;;;;;13.17;62.17;98004.91;4968952;28;20042;-84
2022/11/08 10:47:45;;;;;;;3.88;2.20;;;;;;;13.31;62.12;97982.69;4969980;28;20038;-84
2022/11/08 10:50:19;;;;;;;5.43;2.55;;;;;;;13.53;62.94;97985.69;4970466;28;20510;-83
2022/11/08 10:53:01;;;;;;;3.92;2.10;;;;;;;13.65;60.54;97968.91;4966063;28;20070;-85
2022/11/08 10:55:37;;;;;;;5.07;2.65;;;;;;;13.80;60.79;97975.63;4970418;28;20066;-85
2022/11/08 10:58:23;;;;;;;3.60;2.30;;;;;;;13.85;60.16;97975.75;4969467;28;20057;-85
2022/11/08 11:01:22;;;;;;;3.03;1.83;;;;;;;13.92;59.80;97963.31;4968226;28;20043;-84
2022/11/08 11:03:51;;;;;;;7.50;2.08;;;;;;;14.05;60.25;97962.31;4969459;28;20118;-83
2022/11/08 11:06:31;;;;;;;3.08;2.13;;;;;;;14.09;59.75;97945.81;4969096;28;20034;-85
2022/11/08 11:09:16;;;;;;;3.80;2.28;;;;;;;14.22;58.66;97952.72;4984454;28;20406;-83
2022/11/08 11:11:42;;;;;;;3.67;2.30;;;;;;;14.31;57.69;97930.25;4968679;28;20031;-84
2022/11/08 11:14:13;;;;;;;3.03;2.50;;;;;;;14.43;57.54;97943.47;4959142;28;20155;-84
2022/11/08 11:16:55;;;;;;;2.95;2.40;;;;;;;14.55;58.01;97938.22;4969959;28;20845;-84
2022/11/08 11:19:24;;;;;;;3.47;2.00;;;;;;;14.69;56.45;97943.06;4967210;28;20450;-84
2022/11/08 11:22:06;;;;;;;2.67;1.77;;;;;;;14.68;55.57;97946.72;4968020;28;20030;-84
2022/11/08 11:24:34;;;;;;;2.33;1.80;;;;;;;14.79;56.56;97947.75;4969524;28;20094;-84
2022/11/08 11:27:06;;;;;;;3.47;2.25;;;;;;;14.96;57.58;97940.75;4970127;28;20549;-83
2022/11/08 11:29:33;;;;;;;2.42;1.67;;;;;;;15.06;57.23;97953.38;4968438;28;20129;-84
2022/11/08 11:32:41;;;;;;;4.10;1.98;;;;;;;15.18;56.40;97940.97;4969077;28;20047;-84
2022/11/08 11:35:15;;;;;;;2.88;1.90;;;;;;;15.33;56.37;97937.00;4968275;28;20035;-83
2022/11/08 11:37:57;;;;;;;2.83;1.80;;;;;;;15.38;54.40;97942.41;4969430;28;20035;-84
2022/11/08 11:40:39;;;;;;;2.78;1.85;;;;;;;15.40;54.56;97938.47;4969422;28;20042;-85
2022/11/08 11:43:30;;;;;;;4.03;1.98;;;;;;;15.48;54.75;97937.31;4967047;28;20062;-84
2022/11/08 11:46:10;;;;;;;;;;;;;;;15.61;54.96;97944.16;4968763;28;20042;-83
2022/11/08 11:48:47;;;;;;;4.07;2.00;;;;;;;15.79;54.56;97942.16;4969065;28;19914;-83
2022/11/08 11:51:13;;;;;;;9.60;2.60;;;;;;;15.72;53.31;97940.72;4968656;28;20285;-83
2022/11/08 11:53:40;;;;;;;5.80;2.47;;;;;;;15.69;53.93;97926.09;4964412;28;20027;-84
2022/11/08 11:56:36;;;;;;;2.55;2.08;;;;;;;15.90;53.86;97927.31;4968360;28;20034;-85
2022/11/08 11:59:30;;;;;;;6.60;2.28;;;;;;;16.04;53.89;97922.50;4969637;28;20038;-84
2022/11/08 12:02:35;;;;;;;3.28;1.88;;;;;;;16.27;54.85;97916.28;4968395;28;20030;-85
2022/11/08 12:05:35;;;;;;;2.38;2.10;;;;;;;16.17;52.91;97916.09;4966909;28;20042;-85
2022/11/08 12:08:27;;;;;;;4.80;2.00;;;;;;;15.98;53.27;97908.38;4969588;28;20066;-85
2022/11/08 12:11:39;;;;;;;2.50;1.83;;;;;;;15.95;53.99;97906.22;4983498;28;20054;-85
2022/11/08 12:14:26;;;;;;;3.75;2.28;;;;;;;16.10;54.72;97902.22;4983451;28;20031;-84